Weather at Munich Airport

Public forecast

Using degrees Celsius for public forecast. Weather courtesy of forecast.io.

Current aviation weather report (METAR) for Munich Airport

Retrieved 2021/01/26 08:20 UTC (5 minutes ago):

EDDM 260820Z 25021KT 4000 -SN SCT015 BKN036 M02/M04 Q1015 R26L/290095 TEMPO 25020G30KT 6000

Aviation forecast (TAF) for Munich Airport

Retrieved 2021/01/26 06:27 UTC (2 hours ago):

TAF TAF EDDM 260500Z 2606/2712 25011KT 9999 BKN020 BECMG 2606/2608 25015G25KT TEMPO 2607/2610 3500 -SN BECMG 2608/2610 24020G35KT TEMPO 2610/2615 25025G40KT 2000 -SN BLSN BKN012 TEMPO 2615/2621 3500 -SN BECMG 2616/2619 25015G25KT BECMG 2620/2623 26010KT BECMG 2703/2706 VRB03KT